createdAt,value
2024-01-09T00:00:14.717Z,0
2024-01-09T00:01:15.709Z,0
2024-01-09T00:02:17.255Z,0
2024-01-09T00:03:16.584Z,0
2024-01-09T00:04:16.449Z,0
2024-01-09T00:05:17.185Z,0
2024-01-09T00:06:17.897Z,0
2024-01-09T00:07:17.599Z,0
2024-01-09T00:08:17.931Z,0
2024-01-09T00:09:18.944Z,0
2024-01-09T00:10:19.816Z,0
2024-01-09T00:11:20.576Z,0
2024-01-09T00:12:21.377Z,0
2024-01-09T00:13:22.480Z,0
2024-01-09T00:14:23.688Z,0
2024-01-09T00:15:23.690Z,0
2024-01-09T00:16:24.645Z,0
2024-01-09T00:17:24.972Z,0
2024-01-09T00:18:25.656Z,0
2024-01-09T00:19:25.874Z,0
2024-01-09T00:20:26.317Z,0
2024-01-09T00:21:26.090Z,0
2024-01-09T00:22:26.464Z,0
2024-01-09T00:23:27.447Z,0
2024-01-09T00:24:27.426Z,0
2024-01-09T00:25:28.404Z,0
2024-01-09T00:26:29.296Z,0
2024-01-09T00:27:29.694Z,0
2024-01-09T00:28:29.293Z,0
2024-01-09T00:29:30.268Z,0
2024-01-09T00:30:30.550Z,0
2024-01-09T00:31:31.687Z,0
2024-01-09T00:32:32.861Z,0
2024-01-09T00:33:33.539Z,0
2024-01-09T00:34:34.121Z,0
2024-01-09T00:35:34.416Z,0
2024-01-09T00:36:35.194Z,0
2024-01-09T00:37:35.984Z,0
2024-01-09T00:38:36.876Z,0
2024-01-09T00:39:36.543Z,0
2024-01-09T00:40:37.128Z,0
2024-01-09T00:41:38.722Z,0
2024-01-09T00:42:38.620Z,0
2024-01-09T00:43:39.140Z,0
2024-01-09T00:44:40.461Z,0
2024-01-09T00:45:44.913Z,0
2024-01-09T00:46:40.972Z,0
2024-01-09T00:47:42.517Z,0
2024-01-09T00:48:43.773Z,0
2024-01-09T00:49:43.294Z,0
2024-01-09T00:50:43.603Z,0
2024-01-09T00:51:43.716Z,0
2024-01-09T00:52:44.285Z,0
2024-01-09T00:53:45.135Z,0
2024-01-09T00:54:45.469Z,0
2024-01-09T00:55:45.772Z,0
2024-01-09T00:56:46.939Z,0
2024-01-09T00:57:46.780Z,0
2024-01-09T00:58:47.707Z,0
2024-01-09T00:59:48.321Z,0
2024-01-09T01:00:49.249Z,0
2024-01-09T01:01:49.389Z,0
2024-01-09T01:02:50.519Z,0
2024-01-09T01:03:50.788Z,0
2024-01-09T01:04:52.084Z,0
2024-01-09T01:05:52.925Z,0
2024-01-09T01:06:52.801Z,0
2024-01-09T01:07:53.102Z,0
2024-01-09T01:08:53.939Z,0
2024-01-09T01:09:54.870Z,0
2024-01-09T01:10:55.321Z,0
2024-01-09T01:11:56.618Z,0
2024-01-09T01:12:56.358Z,0
2024-01-09T01:13:57.406Z,0
2024-01-09T01:14:58.144Z,0
2024-01-09T01:15:59.074Z,0
2024-01-09T01:16:59.208Z,0
2024-01-09T01:18:00.620Z,0
2024-01-09T01:19:00.090Z,0
2024-01-09T01:20:01.329Z,0
2024-01-09T01:22:01.725Z,0
2024-01-09T01:23:02.671Z,0
2024-01-09T01:24:03.728Z,0
2024-01-09T01:25:04.461Z,0
2024-01-09T01:26:05.370Z,0
2024-01-09T01:27:06.464Z,0
2024-01-09T01:28:06.480Z,0
2024-01-09T01:29:07.425Z,0
2024-01-09T01:30:08.085Z,0
2024-01-09T01:31:08.184Z,0
2024-01-09T01:32:09.101Z,0
2024-01-09T01:33:10.612Z,0
2024-01-09T01:34:10.885Z,0
2024-01-09T01:35:11.226Z,0
2024-01-09T01:36:12.005Z,0
2024-01-09T01:37:11.911Z,0
2024-01-09T01:38:12.805Z,0
2024-01-09T01:39:13.571Z,0
2024-01-09T01:40:13.886Z,0
2024-01-09T01:41:14.833Z,0
2024-01-09T01:42:17.091Z,0
2024-01-09T01:43:15.652Z,0
2024-01-09T01:44:16.324Z,0
2024-01-09T01:45:17.118Z,0
2024-01-09T01:46:17.644Z,0
2024-01-09T01:47:18.490Z,0
2024-01-09T01:48:18.970Z,0
2024-01-09T01:49:19.868Z,0
2024-01-09T01:50:20.248Z,0
2024-01-09T01:51:19.960Z,0
2024-01-09T01:52:20.919Z,0
2024-01-09T01:53:22.100Z,0
2024-01-09T01:54:22.655Z,0
2024-01-09T01:55:23.365Z,0
2024-01-09T01:56:24.253Z,0
2024-01-09T01:57:25.279Z,0
2024-01-09T01:58:25.832Z,0
2024-01-09T01:59:26.258Z,0
2024-01-09T02:00:26.862Z,0
2024-01-09T02:01:27.977Z,0
2024-01-09T02:02:29.098Z,0
2024-01-09T02:03:29.404Z,0
2024-01-09T02:04:29.528Z,0
2024-01-09T02:05:31.132Z,0
2024-01-09T02:06:31.294Z,0
2024-01-09T02:07:30.996Z,0
2024-01-09T02:08:32.001Z,0
2024-01-09T02:09:31.717Z,0
2024-01-09T02:10:32.466Z,0
2024-01-09T02:11:33.100Z,0
2024-01-09T02:12:33.668Z,0
2024-01-09T02:13:34.804Z,0
2024-01-09T02:14:35.749Z,0
2024-01-09T02:15:35.700Z,0
2024-01-09T02:16:36.613Z,0
2024-01-09T02:17:40.940Z,0
2024-01-09T02:18:37.944Z,0
2024-01-09T02:19:38.336Z,0
2024-01-09T02:20:38.209Z,0
2024-01-09T02:21:38.852Z,0
2024-01-09T02:22:39.828Z,0
2024-01-09T02:23:40.673Z,0
2024-01-09T02:24:42.718Z,0
2024-01-09T02:25:41.689Z,0
2024-01-09T02:27:10.013Z,0
2024-01-09T02:28:43.682Z,0
2024-01-09T02:29:43.406Z,0
2024-01-09T02:30:44.019Z,0
2024-01-09T02:31:44.172Z,0
2024-01-09T02:32:45.737Z,0
2024-01-09T02:33:46.361Z,0
2024-01-09T02:34:46.645Z,0
2024-01-09T02:35:46.720Z,0
2024-01-09T02:36:47.525Z,0
2024-01-09T02:37:48.321Z,0
2024-01-09T02:38:49.428Z,0
2024-01-09T02:39:49.440Z,0
2024-01-09T02:40:49.379Z,0
2024-01-09T02:41:50.069Z,0
2024-01-09T02:42:49.701Z,0
2024-01-09T02:43:50.739Z,0
2024-01-09T02:44:51.768Z,0
2024-01-09T02:45:52.061Z,0
2024-01-09T02:46:52.812Z,0
2024-01-09T02:47:54.180Z,0
2024-01-09T02:48:54.561Z,0
2024-01-09T02:49:54.875Z,0
2024-01-09T02:50:56.012Z,0
2024-01-09T02:51:56.649Z,0
2024-01-09T02:52:57.162Z,0
2024-01-09T02:53:58.358Z,0
2024-01-09T02:54:58.923Z,0
2024-01-09T02:55:59.634Z,0
2024-01-09T02:56:59.968Z,0
2024-01-09T02:57:59.670Z,0
2024-01-09T02:59:00.604Z,0
2024-01-09T03:00:01.519Z,0
2024-01-09T03:01:02.243Z,0
2024-01-09T03:02:03.071Z,0
2024-01-09T03:03:04.505Z,0
2024-01-09T03:04:05.672Z,0
2024-01-09T03:05:06.201Z,0
2024-01-09T03:06:07.394Z,0
2024-01-09T03:07:08.178Z,0
2024-01-09T03:08:07.603Z,0
2024-01-09T03:09:08.560Z,0
2024-01-09T03:10:09.699Z,0
2024-01-09T03:11:09.820Z,0
2024-01-09T03:12:10.378Z,0
2024-01-09T03:13:10.877Z,0
2024-01-09T03:14:11.816Z,0
2024-01-09T03:15:12.268Z,0
2024-01-09T03:16:12.426Z,0
2024-01-09T03:17:12.946Z,0
2024-01-09T03:18:14.935Z,0
2024-01-09T03:19:15.472Z,0
2024-01-09T03:20:15.770Z,0
2024-01-09T03:21:16.847Z,0
2024-01-09T03:22:17.460Z,0
2024-01-09T03:23:18.527Z,0
2024-01-09T03:24:18.529Z,0
2024-01-09T03:25:19.631Z,0
2024-01-09T03:26:19.680Z,0
2024-01-09T03:27:20.674Z,0
2024-01-09T03:28:21.556Z,0
2024-01-09T03:29:22.721Z,0
2024-01-09T03:30:22.620Z,0
2024-01-09T03:31:23.634Z,0
2024-01-09T03:32:24.119Z,0
2024-01-09T03:33:25.197Z,0
2024-01-09T03:34:25.141Z,0
2024-01-09T03:35:25.970Z,0
2024-01-09T03:36:26.787Z,0
2024-01-09T03:37:27.075Z,0
2024-01-09T03:38:28.219Z,0
2024-01-09T03:39:28.202Z,0
2024-01-09T03:40:28.997Z,0
2024-01-09T03:41:29.649Z,0
2024-01-09T03:42:30.223Z,0
2024-01-09T03:43:31.161Z,0
2024-01-09T03:44:31.214Z,0
2024-01-09T03:45:31.234Z,0
2024-01-09T03:46:31.954Z,0
2024-01-09T03:47:32.301Z,0
2024-01-09T03:48:33.276Z,0
2024-01-09T03:49:34.213Z,0
2024-01-09T03:50:34.514Z,0
2024-01-09T03:51:34.296Z,0
2024-01-09T03:52:34.615Z,0
2024-01-09T03:53:35.012Z,0
2024-01-09T03:54:35.719Z,0
2024-01-09T03:55:36.461Z,0
2024-01-09T03:56:37.608Z,0
2024-01-09T03:57:37.232Z,0
2024-01-09T03:58:37.910Z,0
2024-01-09T03:59:38.735Z,0
2024-01-09T04:00:38.827Z,0
2024-01-09T04:01:39.644Z,0
2024-01-09T04:02:40.636Z,0
2024-01-09T04:03:41.560Z,0
2024-01-09T04:04:41.861Z,0
2024-01-09T04:05:43.021Z,0
2024-01-09T04:06:43.168Z,0
2024-01-09T04:07:43.704Z,0
2024-01-09T04:08:44.566Z,0
2024-01-09T04:09:45.462Z,0
2024-01-09T04:10:45.961Z,0
2024-01-09T04:11:47.169Z,0
2024-01-09T04:12:47.037Z,0
2024-01-09T04:13:47.554Z,0
2024-01-09T04:14:49.266Z,0
2024-01-09T04:15:49.481Z,0
2024-01-09T04:16:49.795Z,0
2024-01-09T04:17:50.933Z,0
2024-01-09T04:18:51.725Z,0
2024-01-09T04:19:51.937Z,0
2024-01-09T04:20:51.914Z,0
2024-01-09T04:21:52.598Z,0
2024-01-09T04:22:53.180Z,0
2024-01-09T04:23:53.704Z,0
2024-01-09T04:24:54.083Z,0
2024-01-09T04:25:54.724Z,0
2024-01-09T04:26:55.711Z,0
2024-01-09T04:27:56.228Z,0
2024-01-09T04:28:56.596Z,0
2024-01-09T04:29:58.115Z,0
2024-01-09T04:30:58.308Z,0
2024-01-09T04:31:58.359Z,0
2024-01-09T04:32:58.670Z,0
2024-01-09T04:33:59.111Z,0
2024-01-09T04:34:59.216Z,0
2024-01-09T04:35:59.519Z,0
2024-01-09T04:36:59.147Z,0
2024-01-09T04:38:00.331Z,0
2024-01-09T04:39:01.464Z,0
2024-01-09T04:40:02.249Z,0
2024-01-09T04:41:01.907Z,0
2024-01-09T04:42:02.852Z,0
2024-01-09T04:43:03.746Z,0
2024-01-09T04:44:04.434Z,0
2024-01-09T04:45:05.866Z,0
2024-01-09T04:46:05.765Z,0
2024-01-09T04:47:05.869Z,0
2024-01-09T04:48:07.020Z,0
2024-01-09T04:49:07.717Z,0
2024-01-09T04:50:07.772Z,0
2024-01-09T04:51:07.774Z,0
2024-01-09T04:52:08.590Z,0
2024-01-09T04:53:09.684Z,0
2024-01-09T04:54:10.454Z,0
2024-01-09T04:55:10.838Z,0
2024-01-09T04:56:11.417Z,0
2024-01-09T04:57:12.481Z,0
2024-01-09T04:58:13.180Z,0
2024-01-09T04:59:13.724Z,0
2024-01-09T05:00:14.867Z,0
2024-01-09T05:01:14.568Z,0
2024-01-09T05:02:15.128Z,0
2024-01-09T05:03:16.986Z,0
2024-01-09T05:04:20.983Z,0
2024-01-09T05:05:17.698Z,0
2024-01-09T05:06:18.490Z,0
2024-01-09T05:07:18.847Z,0
2024-01-09T05:08:19.785Z,0
2024-01-09T05:09:20.375Z,0
2024-01-09T05:10:20.876Z,0
2024-01-09T05:11:25.579Z,0
2024-01-09T05:12:22.350Z,0
2024-01-09T05:14:22.757Z,0
2024-01-09T05:15:23.791Z,0
2024-01-09T05:16:24.116Z,0
2024-01-09T05:17:24.708Z,0
2024-01-09T05:18:25.302Z,0
2024-01-09T05:19:25.574Z,0
2024-01-09T05:20:26.051Z,0
2024-01-09T05:21:25.862Z,0
2024-01-09T05:22:26.773Z,0
2024-01-09T05:23:27.497Z,0
2024-01-09T05:24:28.188Z,0
2024-01-09T05:25:28.954Z,0
2024-01-09T05:26:31.941Z,0
2024-01-09T05:27:30.545Z,0
2024-01-09T05:28:31.268Z,0
2024-01-09T05:29:31.353Z,0
2024-01-09T05:30:32.441Z,0
2024-01-09T05:31:34.741Z,0
2024-01-09T05:32:32.733Z,0
2024-01-09T05:33:34.161Z,0
2024-01-09T05:34:33.556Z,0
2024-01-09T05:35:34.464Z,0
2024-01-09T05:36:34.548Z,0
2024-01-09T05:37:35.485Z,0
2024-01-09T05:38:35.673Z,0
2024-01-09T05:39:35.885Z,0
2024-01-09T05:40:36.373Z,0
2024-01-09T05:41:37.531Z,0
2024-01-09T05:42:38.288Z,0
2024-01-09T05:43:38.751Z,0
2024-01-09T05:44:39.628Z,0
2024-01-09T05:45:40.507Z,0
2024-01-09T05:46:41.266Z,0
2024-01-09T05:47:43.100Z,0
2024-01-09T05:48:43.283Z,0
2024-01-09T05:49:42.684Z,0
2024-01-09T05:50:43.441Z,0
2024-01-09T05:51:44.742Z,0
2024-01-09T05:52:45.253Z,0
2024-01-09T05:53:47.619Z,0
2024-01-09T05:54:46.298Z,0
2024-01-09T05:55:46.804Z,0
2024-01-09T05:56:47.859Z,0
2024-01-09T05:57:47.856Z,0
2024-01-09T05:58:48.532Z,0
2024-01-09T05:59:49.870Z,0
2024-01-09T06:00:50.309Z,0
2024-01-09T06:01:50.155Z,0
2024-01-09T06:02:51.139Z,0
2024-01-09T06:03:51.271Z,0
2024-01-09T06:04:57.803Z,0
2024-01-09T06:05:53.494Z,0
2024-01-09T06:06:54.556Z,0
2024-01-09T06:07:54.641Z,0
2024-01-09T06:08:55.391Z,0
2024-01-09T06:09:56.031Z,0
2024-01-09T06:10:56.927Z,0
2024-01-09T06:11:58.105Z,0
2024-01-09T06:12:58.060Z,0
2024-01-09T06:13:58.267Z,0
2024-01-09T06:14:59.080Z,0
2024-01-09T06:15:59.500Z,0
2024-01-09T06:16:59.722Z,0
2024-01-09T06:18:01.032Z,0
2024-01-09T06:19:01.604Z,0
2024-01-09T06:20:02.013Z,0
2024-01-09T06:21:02.909Z,0
2024-01-09T06:22:03.158Z,0
2024-01-09T06:23:04.114Z,0
2024-01-09T06:24:05.403Z,0
2024-01-09T06:25:06.118Z,0
2024-01-09T06:26:06.866Z,0
2024-01-09T06:27:07.650Z,0
2024-01-09T06:28:10.710Z,0
2024-01-09T06:29:08.651Z,0
2024-01-09T06:30:09.665Z,0
2024-01-09T06:31:09.979Z,0
2024-01-09T06:32:10.031Z,0
2024-01-09T06:33:12.131Z,0
2024-01-09T06:34:12.317Z,0
2024-01-09T06:35:11.909Z,0
2024-01-09T06:36:12.744Z,4
2024-01-09T06:37:13.523Z,0
2024-01-09T06:38:14.473Z,0
2024-01-09T06:39:15.292Z,4
2024-01-09T06:40:16.026Z,4
2024-01-09T06:41:16.407Z,4
2024-01-09T06:42:16.773Z,4
2024-01-09T06:43:17.317Z,8
2024-01-09T06:44:17.985Z,4
2024-01-09T06:45:18.656Z,8
2024-01-09T06:46:19.476Z,8
2024-01-09T06:47:20.079Z,8
2024-01-09T06:48:21.608Z,8
2024-01-09T06:49:21.885Z,12
2024-01-09T06:50:44.292Z,12
2024-01-09T06:52:22.883Z,16
2024-01-09T06:53:24.091Z,20
2024-01-09T06:54:24.070Z,20
2024-01-09T06:55:24.579Z,20
2024-01-09T06:56:25.445Z,24
2024-01-09T06:57:25.256Z,28
2024-01-09T06:58:25.958Z,28
2024-01-09T06:59:26.668Z,32
2024-01-09T07:00:27.203Z,36
2024-01-09T07:01:31.331Z,36
2024-01-09T07:02:29.225Z,40
2024-01-09T07:03:30.099Z,44
2024-01-09T07:04:31.801Z,44
2024-01-09T07:05:32.279Z,52
2024-01-09T07:06:33.186Z,52
2024-01-09T07:07:54.306Z,60
2024-01-09T07:08:34.142Z,64
2024-01-09T07:09:35.147Z,64
2024-01-09T07:10:35.704Z,72
2024-01-09T07:11:36.782Z,76
2024-01-09T07:12:37.155Z,76
2024-01-09T07:13:37.702Z,88
2024-01-09T07:14:38.554Z,92
2024-01-09T07:15:39.162Z,96
2024-01-09T07:16:42.925Z,100
2024-01-09T07:17:39.920Z,104
2024-01-09T07:18:40.492Z,108
2024-01-09T07:19:41.395Z,116
2024-01-09T07:20:41.096Z,120
2024-01-09T07:21:42.122Z,124
2024-01-09T07:22:44.743Z,128
2024-01-09T07:23:43.134Z,140
2024-01-09T07:24:43.175Z,148
2024-01-09T07:25:43.909Z,156
2024-01-09T07:26:44.810Z,156
2024-01-09T07:27:44.541Z,160
2024-01-09T07:28:45.314Z,164
2024-01-09T07:29:45.498Z,172
2024-01-09T07:30:45.828Z,184
2024-01-09T07:31:46.965Z,196
2024-01-09T07:32:48.017Z,196
2024-01-09T07:33:48.751Z,200
2024-01-09T07:34:49.698Z,208
2024-01-09T07:35:49.988Z,224
2024-01-09T07:36:49.939Z,220
2024-01-09T07:37:50.950Z,236
2024-01-09T07:38:51.948Z,252
2024-01-09T07:39:52.034Z,264
2024-01-09T07:40:53.616Z,264
2024-01-09T07:41:54.131Z,268
2024-01-09T07:43:07.518Z,276
2024-01-09T07:45:55.697Z,300
2024-01-09T07:46:57.375Z,320
2024-01-09T07:47:56.852Z,328
2024-01-09T07:48:57.887Z,340
2024-01-09T07:49:57.837Z,344
2024-01-09T07:50:58.906Z,356
2024-01-09T07:51:59.765Z,368
2024-01-09T07:53:02.211Z,388
2024-01-09T07:54:01.987Z,408
2024-01-09T07:55:02.617Z,400
2024-01-09T07:56:03.860Z,404
2024-01-09T07:57:04.936Z,420
2024-01-09T07:58:04.875Z,436
2024-01-09T07:59:05.374Z,444
2024-01-09T08:00:06.339Z,444
2024-01-09T08:01:07.265Z,456
2024-01-09T08:02:08.041Z,488
2024-01-09T08:03:08.853Z,508
2024-01-09T08:04:08.850Z,508
2024-01-09T08:05:09.215Z,532
2024-01-09T08:06:10.516Z,568
2024-01-09T08:07:11.012Z,568
2024-01-09T08:08:11.479Z,556
2024-01-09T08:09:12.578Z,560
2024-01-09T08:10:12.299Z,572
2024-01-09T08:11:13.498Z,588
2024-01-09T08:12:14.419Z,584
2024-01-09T08:13:14.961Z,572
2024-01-09T08:14:16.006Z,588
2024-01-09T08:15:17.080Z,588
2024-01-09T08:16:17.810Z,580
2024-01-09T08:17:19.137Z,616
2024-01-09T08:18:20.073Z,644
2024-01-09T08:19:19.695Z,640
2024-01-09T08:20:19.917Z,636
2024-01-09T08:21:20.127Z,648
2024-01-09T08:22:20.943Z,684
2024-01-09T08:23:21.015Z,724
2024-01-09T08:24:20.711Z,732
2024-01-09T08:25:21.653Z,728
2024-01-09T08:26:22.731Z,740
2024-01-09T08:27:22.390Z,740
2024-01-09T08:28:23.135Z,740
2024-01-09T08:29:24.470Z,744
2024-01-09T08:30:24.785Z,744
2024-01-09T08:31:25.496Z,780
2024-01-09T08:32:26.562Z,792
2024-01-09T08:33:33.361Z,800
2024-01-09T08:34:28.271Z,792
2024-01-09T08:36:28.693Z,812
2024-01-09T08:37:29.764Z,808
2024-01-09T08:38:30.094Z,804
2024-01-09T08:39:29.931Z,808
2024-01-09T08:40:31.096Z,832
2024-01-09T08:41:31.482Z,840
2024-01-09T08:42:32.070Z,828
2024-01-09T08:43:33.111Z,816
2024-01-09T08:44:34.349Z,800
2024-01-09T08:45:33.954Z,792
2024-01-09T08:46:34.722Z,820
2024-01-09T08:47:36.129Z,824
2024-01-09T08:48:36.871Z,836
2024-01-09T08:49:37.257Z,852
2024-01-09T08:50:37.076Z,868
2024-01-09T08:51:40.317Z,852
2024-01-09T08:52:39.197Z,856
2024-01-09T08:53:39.365Z,872
2024-01-09T08:54:39.598Z,868
2024-01-09T08:55:40.240Z,868
2024-01-09T08:56:41.589Z,884
2024-01-09T08:57:42.137Z,904
2024-01-09T08:58:41.794Z,916
2024-01-09T08:59:43.005Z,952
2024-01-09T09:00:43.136Z,968
2024-01-09T09:01:43.712Z,980
2024-01-09T09:02:44.622Z,984
2024-01-09T09:03:44.971Z,988
2024-01-09T09:04:44.845Z,1012
2024-01-09T09:05:48.862Z,1056
2024-01-09T09:06:46.218Z,1092
2024-01-09T09:07:46.429Z,1168
2024-01-09T09:08:47.722Z,1212
2024-01-09T09:09:48.038Z,1248
2024-01-09T09:10:48.187Z,1260
2024-01-09T09:11:48.204Z,1256
2024-01-09T09:12:49.266Z,1304
2024-01-09T09:13:50.282Z,1324
2024-01-09T09:14:51.459Z,1332
2024-01-09T09:15:52.533Z,1328
2024-01-09T09:16:55.282Z,1308
2024-01-09T09:17:54.293Z,1308
2024-01-09T09:18:55.033Z,1320
2024-01-09T09:19:55.500Z,1320
2024-01-09T09:20:55.535Z,1304
2024-01-09T09:21:55.615Z,1308
2024-01-09T09:22:56.875Z,1308
2024-01-09T09:23:57.892Z,1312
2024-01-09T09:24:58.560Z,1348
2024-01-09T09:25:59.677Z,1376
2024-01-09T09:26:59.629Z,1376
2024-01-09T09:28:01.597Z,1432
2024-01-09T09:29:43.493Z,1440
2024-01-09T09:31:03.177Z,1456
2024-01-09T09:32:03.103Z,1444
2024-01-09T09:33:04.366Z,1448
2024-01-09T09:34:05.069Z,1460
2024-01-09T09:35:05.244Z,1436
2024-01-09T09:36:05.956Z,1400
2024-01-09T09:37:06.598Z,1436
2024-01-09T09:38:07.860Z,1440
2024-01-09T09:39:08.421Z,1448
2024-01-09T09:40:08.261Z,1428
2024-01-09T09:41:09.138Z,1448
2024-01-09T09:42:10.580Z,1488
2024-01-09T09:43:10.771Z,1484
2024-01-09T09:44:10.708Z,1472
2024-01-09T09:45:12.187Z,1468
2024-01-09T09:46:17.748Z,1460
2024-01-09T09:47:12.651Z,1456
2024-01-09T09:48:14.527Z,1552
2024-01-09T09:49:15.348Z,1552
2024-01-09T09:50:15.292Z,1564
2024-01-09T09:51:16.561Z,1560
2024-01-09T09:52:16.360Z,1540
2024-01-09T09:53:17.142Z,1532
2024-01-09T09:54:18.181Z,1540
2024-01-09T09:55:18.370Z,1560
2024-01-09T09:56:18.927Z,1572
2024-01-09T09:57:19.167Z,1592
2024-01-09T09:58:19.114Z,1628
2024-01-09T09:59:20.307Z,1624
2024-01-09T10:00:20.373Z,1632
2024-01-09T10:01:21.472Z,1660
2024-01-09T10:02:22.867Z,1596
2024-01-09T10:03:22.309Z,1608
2024-01-09T10:04:22.717Z,1704
2024-01-09T10:05:23.241Z,1756
2024-01-09T10:06:23.902Z,1752
2024-01-09T10:07:23.880Z,1728
2024-01-09T10:08:24.856Z,1712
2024-01-09T10:09:24.895Z,1712
2024-01-09T10:10:25.981Z,1768
2024-01-09T10:11:26.104Z,1756
2024-01-09T10:12:26.560Z,1684
2024-01-09T10:13:26.397Z,1688
2024-01-09T10:14:27.524Z,1712
2024-01-09T10:15:27.544Z,1696
2024-01-09T10:16:28.320Z,1656
2024-01-09T10:17:29.657Z,1672
2024-01-09T10:18:30.656Z,1644
2024-01-09T10:19:31.220Z,1640
2024-01-09T10:20:33.066Z,1648
2024-01-09T10:21:31.718Z,1604
2024-01-09T10:22:32.486Z,1576
2024-01-09T10:23:33.843Z,1568
2024-01-09T10:24:33.762Z,1564
2024-01-09T10:25:34.553Z,1576
2024-01-09T10:26:36.084Z,1568
2024-01-09T10:27:35.624Z,1596
2024-01-09T10:28:36.383Z,1588
2024-01-09T10:29:36.982Z,1604
2024-01-09T10:30:37.783Z,1600
2024-01-09T10:31:38.782Z,1636
2024-01-09T10:32:41.626Z,1632
2024-01-09T10:33:40.728Z,1632
2024-01-09T10:34:39.828Z,1640
2024-01-09T10:35:41.165Z,1652
2024-01-09T10:36:41.258Z,1616
2024-01-09T10:37:41.620Z,1636
2024-01-09T10:38:44.781Z,1652
2024-01-09T10:39:42.999Z,1628
2024-01-09T10:40:43.811Z,1612
2024-01-09T10:41:44.960Z,1588
2024-01-09T10:42:44.575Z,1596
2024-01-09T10:43:45.589Z,1632
2024-01-09T10:44:46.655Z,1680
2024-01-09T10:45:46.674Z,1660
2024-01-09T10:46:47.357Z,1600
2024-01-09T10:47:49.352Z,1604
2024-01-09T10:48:49.650Z,1648
2024-01-09T10:49:48.879Z,1676
2024-01-09T10:50:50.083Z,1664
2024-01-09T10:51:50.073Z,1680
2024-01-09T10:52:50.982Z,1720
2024-01-09T10:53:52.190Z,1792
2024-01-09T10:54:54.878Z,1828
2024-01-09T10:55:52.806Z,1796
2024-01-09T10:56:53.912Z,1780
2024-01-09T10:57:53.795Z,1756
2024-01-09T10:58:54.862Z,1724
2024-01-09T10:59:56.029Z,1744
2024-01-09T11:00:56.636Z,1756
2024-01-09T11:01:56.527Z,1728
2024-01-09T11:02:57.546Z,1720
2024-01-09T11:03:58.310Z,1736
2024-01-09T11:04:58.551Z,1748
2024-01-09T11:05:59.750Z,1712
2024-01-09T11:07:00.240Z,1644
2024-01-09T11:08:00.103Z,1608
2024-01-09T11:09:01.276Z,1612
2024-01-09T11:10:01.411Z,1676
2024-01-09T11:11:02.597Z,1744
2024-01-09T11:12:02.585Z,1788
2024-01-09T11:13:03.733Z,1784
2024-01-09T11:14:03.844Z,1796
2024-01-09T11:15:05.004Z,1796
2024-01-09T11:16:05.169Z,1804
2024-01-09T11:17:05.593Z,1820
2024-01-09T11:18:07.658Z,1864
2024-01-09T11:19:07.442Z,1888
2024-01-09T11:20:07.702Z,1908
2024-01-09T11:21:08.337Z,1892
2024-01-09T11:22:08.389Z,1788
2024-01-09T11:23:09.328Z,1716
2024-01-09T11:24:11.127Z,1736
2024-01-09T11:25:09.861Z,1796
2024-01-09T11:26:10.719Z,1824
2024-01-09T11:27:10.779Z,1840
2024-01-09T11:28:11.657Z,1816
2024-01-09T11:29:12.137Z,1808
2024-01-09T11:30:13.414Z,1824
2024-01-09T11:31:14.170Z,1808
2024-01-09T11:32:14.166Z,1776
2024-01-09T11:33:15.808Z,1748
2024-01-09T11:34:16.757Z,1740
2024-01-09T11:35:16.955Z,1776
2024-01-09T11:36:17.160Z,1776
2024-01-09T11:37:17.458Z,1780
2024-01-09T11:38:17.769Z,1816
2024-01-09T11:39:18.611Z,1808
2024-01-09T11:40:19.581Z,1736
2024-01-09T11:41:20.424Z,1696
2024-01-09T11:42:21.492Z,1696
2024-01-09T11:43:22.254Z,1712
2024-01-09T11:44:23.356Z,1724
2024-01-09T11:45:22.971Z,1716
2024-01-09T11:46:23.916Z,1700
2024-01-09T11:47:24.492Z,1736
2024-01-09T11:48:26.656Z,1764
2024-01-09T11:49:27.096Z,1772
2024-01-09T11:50:26.619Z,1768
2024-01-09T11:51:26.699Z,1784
2024-01-09T11:52:26.828Z,1768
2024-01-09T11:53:26.687Z,1792
2024-01-09T11:54:27.274Z,1808
2024-01-09T11:55:28.218Z,1768
2024-01-09T11:56:29.424Z,1712
2024-01-09T11:57:29.163Z,1736
2024-01-09T11:58:29.665Z,1772
2024-01-09T11:59:31.017Z,1804
2024-01-09T12:00:30.596Z,1772
2024-01-09T12:01:32.358Z,1740
2024-01-09T12:02:33.076Z,1752
2024-01-09T12:03:32.171Z,1756
2024-01-09T12:04:33.363Z,1716
2024-01-09T12:05:33.325Z,1688
2024-01-09T12:06:33.374Z,1672
2024-01-09T12:07:33.859Z,1684
2024-01-09T12:08:34.586Z,1688
2024-01-09T12:09:35.806Z,1688
2024-01-09T12:10:44.286Z,1680
2024-01-09T12:12:36.902Z,1732
2024-01-09T12:13:37.683Z,1772
2024-01-09T12:14:38.607Z,1800
2024-01-09T12:15:39.648Z,1752
2024-01-09T12:16:39.981Z,1744
2024-01-09T12:17:42.162Z,1764
2024-01-09T12:18:44.317Z,1776
2024-01-09T12:19:42.871Z,1792
2024-01-09T12:20:42.784Z,1780
2024-01-09T12:21:43.552Z,1740
2024-01-09T12:22:44.461Z,1680
2024-01-09T12:24:32.007Z,1664
2024-01-09T12:25:50.252Z,1636
2024-01-09T12:26:50.488Z,1624
2024-01-09T12:27:50.464Z,1628
2024-01-09T12:28:51.263Z,1624
2024-01-09T12:29:52.391Z,1640
2024-01-09T12:30:52.327Z,1612
2024-01-09T12:31:53.030Z,1580
2024-01-09T12:32:53.508Z,1552
2024-01-09T12:33:54.577Z,1528
2024-01-09T12:34:54.391Z,1484
2024-01-09T12:35:54.373Z,1476
2024-01-09T12:36:54.500Z,1496
2024-01-09T12:37:54.655Z,1484
2024-01-09T12:38:56.126Z,1456
2024-01-09T12:39:56.447Z,1500
2024-01-09T12:40:56.502Z,1488
2024-01-09T12:41:57.856Z,1444
2024-01-09T12:42:58.962Z,1456
2024-01-09T12:43:59.457Z,1476
2024-01-09T12:44:59.150Z,1484
2024-01-09T12:45:59.475Z,1472
2024-01-09T12:47:00.392Z,1444
2024-01-09T12:48:00.786Z,1404
2024-01-09T12:49:03.055Z,1364
2024-01-09T12:50:14.338Z,1388
2024-01-09T12:52:02.906Z,1392
2024-01-09T12:53:03.827Z,1380
2024-01-09T12:54:03.776Z,1380
2024-01-09T12:55:11.096Z,1360
2024-01-09T12:56:05.256Z,1312
2024-01-09T12:57:05.999Z,1304
2024-01-09T12:58:06.425Z,1312
2024-01-09T12:59:07.351Z,1320
2024-01-09T13:00:08.295Z,1340
2024-01-09T13:01:08.328Z,1336
2024-01-09T13:02:09.368Z,1328
2024-01-09T13:03:11.052Z,1376
2024-01-09T13:04:11.595Z,1380
2024-01-09T13:05:13.060Z,1328
2024-01-09T13:06:12.589Z,1316
2024-01-09T13:07:12.508Z,1276
2024-01-09T13:08:13.367Z,1284
2024-01-09T13:09:13.887Z,1268
2024-01-09T13:10:15.314Z,1212
2024-01-09T13:11:15.830Z,1232
2024-01-09T13:12:20.896Z,1224
2024-01-09T13:13:18.260Z,1236
2024-01-09T13:14:17.234Z,1248
2024-01-09T13:15:18.278Z,1220
2024-01-09T13:16:19.387Z,1204
2024-01-09T13:17:19.401Z,1188
2024-01-09T13:18:25.117Z,1192
2024-01-09T13:19:21.203Z,1232
2024-01-09T13:20:20.875Z,1228
2024-01-09T13:21:21.631Z,1204
2024-01-09T13:24:10.082Z,1092
2024-01-09T13:25:27.814Z,1120
2024-01-09T13:26:27.818Z,1088
2024-01-09T13:27:28.756Z,1068
2024-01-09T13:28:28.614Z,1028
2024-01-09T13:31:06.716Z,1036
2024-01-09T13:32:04.921Z,1004
2024-01-09T13:33:05.406Z,988
2024-01-09T13:34:06.052Z,992
2024-01-09T13:35:05.970Z,988
2024-01-09T13:36:07.359Z,980
2024-01-09T13:37:07.124Z,988
2024-01-09T13:38:08.060Z,996
2024-01-09T13:39:07.902Z,988
2024-01-09T13:40:08.823Z,960
2024-01-09T13:41:10.152Z,956
2024-01-09T13:42:11.122Z,924
2024-01-09T13:43:11.508Z,908
2024-01-09T13:44:11.516Z,904
2024-01-09T13:45:11.377Z,892
2024-01-09T13:46:12.173Z,864
2024-01-09T13:47:13.583Z,872
2024-01-09T13:48:14.154Z,884
2024-01-09T13:49:15.134Z,872
2024-01-09T13:52:00.835Z,872
2024-01-09T13:53:49.933Z,836
2024-01-09T13:54:50.450Z,816
2024-01-09T13:55:51.497Z,808
2024-01-09T13:56:52.545Z,796
2024-01-09T13:57:53.495Z,780
2024-01-09T13:58:53.735Z,764
2024-01-09T13:59:54.839Z,756
2024-01-09T14:00:54.889Z,748
2024-01-09T14:01:56.453Z,744
2024-01-09T14:02:55.267Z,748
2024-01-09T14:03:56.244Z,736
2024-01-09T14:04:56.724Z,716
2024-01-09T14:05:56.726Z,700
2024-01-09T14:06:56.527Z,716
2024-01-09T14:07:57.547Z,708
2024-01-09T14:08:57.429Z,672
2024-01-09T14:09:58.242Z,644
2024-01-09T14:11:01.837Z,624
2024-01-09T14:12:00.403Z,620
2024-01-09T14:14:00.930Z,608
2024-01-09T14:15:01.064Z,588
2024-01-09T14:16:02.008Z,580
2024-01-09T14:17:02.888Z,588
2024-01-09T14:18:02.939Z,580
2024-01-09T14:19:04.201Z,568
2024-01-09T14:20:03.768Z,548
2024-01-09T14:21:03.619Z,528
2024-01-09T14:22:04.415Z,524
2024-01-09T14:23:05.339Z,536
2024-01-09T14:24:05.323Z,536
2024-01-09T14:25:06.259Z,524
2024-01-09T14:26:07.395Z,504
2024-01-09T14:27:08.253Z,504
2024-01-09T14:28:08.451Z,504
2024-01-09T14:29:08.650Z,480
2024-01-09T14:30:08.287Z,464
2024-01-09T14:31:09.815Z,460
2024-01-09T14:32:10.305Z,452